Time;durP1;ratioP1;P1;durP2;ratioP2;P2;SDS_P1;SDS_P2;PMS_P1;PMS_P2;Temp;Humidity;BMP_temperature;BMP_pressure;BME280_temperature;BME280_humidity;BME280_pressure;Samples;Min_cycle;Max_cycle;Signal;HPM_P1;HPM_P2
2022/01/09 00:00:15;;;;;;;0.40;0.20;;;7.20;99.90;;;;;;5108773;27;20467;-72
2022/01/09 00:02:41;;;;;;;0.40;0.20;;;7.20;99.90;;;;;;5108875;27;20474;-72
2022/01/09 00:05:07;;;;;;;0.40;0.20;;;7.30;99.90;;;;;;5108586;27;20388;-73
2022/01/09 00:07:33;;;;;;;0.40;0.30;;;7.30;99.90;;;;;;5104341;27;20409;-72
2022/01/09 00:09:59;;;;;;;0.40;0.20;;;7.30;99.90;;;;;;5109010;27;20906;-72
2022/01/09 00:12:25;;;;;;;0.40;0.30;;;7.20;99.90;;;;;;5108396;27;20418;-72
2022/01/09 00:14:52;;;;;;;0.40;0.20;;;7.30;99.90;;;;;;5091537;27;20398;-72
2022/01/09 00:17:18;;;;;;;0.40;0.20;;;7.40;99.90;;;;;;5103642;27;20380;-74
2022/01/09 00:19:44;;;;;;;0.40;0.20;;;7.40;99.90;;;;;;5109439;27;20398;-73
2022/01/09 00:22:10;;;;;;;0.40;0.20;;;7.50;99.90;;;;;;5108383;27;20390;-72
2022/01/09 00:24:36;;;;;;;0.40;0.20;;;7.40;99.90;;;;;;5106467;27;20386;-72
2022/01/09 00:27:02;;;;;;;0.40;0.20;;;7.50;99.90;;;;;;5104129;27;20386;-73
2022/01/09 00:29:28;;;;;;;0.40;0.30;;;7.50;99.90;;;;;;5108279;27;21342;-73
2022/01/09 00:31:53;;;;;;;0.40;0.30;;;7.50;99.90;;;;;;5108196;27;20392;-72
2022/01/09 00:34:19;;;;;;;0.40;0.20;;;7.60;99.90;;;;;;5107852;27;20750;-73
2022/01/09 00:36:45;;;;;;;0.40;0.20;;;7.70;99.90;;;;;;5103972;27;20378;-72
2022/01/09 00:39:10;;;;;;;0.40;0.20;;;7.60;99.90;;;;;;5088137;27;20450;-72
2022/01/09 00:41:36;;;;;;;0.40;0.20;;;7.60;99.90;;;;;;5107247;27;20977;-72
2022/01/09 00:44:02;;;;;;;0.40;0.20;;;7.50;99.90;;;;;;5107745;27;20391;-72
2022/01/09 00:46:28;;;;;;;0.40;0.20;;;7.40;99.90;;;;;;5105809;27;20463;-72
2022/01/09 00:48:53;;;;;;;0.40;0.20;;;7.50;99.90;;;;;;5104737;27;21231;-72
2022/01/09 00:51:19;;;;;;;0.40;0.20;;;7.40;99.90;;;;;;5107801;27;20875;-72
2022/01/09 00:53:45;;;;;;;0.40;0.20;;;7.40;99.90;;;;;;5108166;27;21325;-73
2022/01/09 00:56:11;;;;;;;0.40;0.20;;;7.50;99.90;;;;;;5088805;27;20484;-73
2022/01/09 00:58:36;;;;;;;0.40;0.20;;;7.40;99.90;;;;;;5104673;27;20380;-73
2022/01/09 01:01:02;;;;;;;0.40;0.30;;;7.50;99.90;;;;;;5107660;27;20404;-73
2022/01/09 01:03:28;;;;;;;0.40;0.20;;;7.60;99.90;;;;;;5108419;27;20384;-73
2022/01/09 01:05:54;;;;;;;0.40;0.20;;;7.60;99.90;;;;;;5106950;27;20395;-72
2022/01/09 01:08:20;;;;;;;0.40;0.20;;;7.50;99.90;;;;;;5101211;27;20400;-72
2022/01/09 01:10:45;;;;;;;0.40;0.20;;;7.60;99.90;;;;;;5118639;27;20378;-73
2022/01/09 01:13:11;;;;;;;0.40;0.20;;;7.60;99.90;;;;;;5109724;28;20851;-74
2022/01/09 01:15:37;;;;;;;0.40;0.30;;;7.60;99.90;;;;;;5111461;28;20385;-73
2022/01/09 01:18:03;;;;;;;0.40;0.20;;;7.60;99.90;;;;;;5110815;27;20380;-74
2022/01/09 01:20:30;;;;;;;0.40;0.20;;;7.60;99.90;;;;;;5121849;27;20374;-73
2022/01/09 01:22:58;;;;;;;0.40;0.20;;;7.60;99.90;;;;;;5129288;27;20370;-71
2022/01/09 01:25:24;;;;;;;0.40;0.30;;;7.60;99.90;;;;;;5130284;27;20476;-74
2022/01/09 01:27:50;;;;;;;0.40;0.30;;;7.50;99.90;;;;;;5109245;27;20868;-73
2022/01/09 01:30:16;;;;;;;0.40;0.20;;;7.50;99.90;;;;;;5119094;27;20410;-73
2022/01/09 01:32:42;;;;;;;0.40;0.30;;;7.40;99.90;;;;;;5120854;27;20384;-74
2022/01/09 01:35:09;;;;;;;0.40;0.20;;;7.40;99.90;;;;;;5117770;27;20384;-71
2022/01/09 01:37:38;;;;;;;0.40;0.20;;;7.30;99.90;;;;;;5101213;27;20871;-72
2022/01/09 01:40:06;;;;;;;0.40;0.20;;;7.30;99.90;;;;;;5119882;27;20380;-75
2022/01/09 01:42:32;;;;;;;0.40;0.30;;;7.20;99.90;;;;;;5125162;27;20383;-74
2022/01/09 01:44:58;;;;;;;0.40;0.20;;;7.10;99.90;;;;;;5115478;27;20403;-73
2022/01/09 01:47:24;;;;;;;0.40;0.20;;;7.00;99.90;;;;;;5109031;28;20981;-73
2022/01/09 01:49:50;;;;;;;0.40;0.20;;;7.10;99.90;;;;;;5109777;28;20469;-74
2022/01/09 01:52:18;;;;;;;0.40;0.20;;;7.00;99.90;;;;;;5109053;28;20368;-73
2022/01/09 01:54:44;;;;;;;0.40;0.20;;;6.90;99.90;;;;;;5110094;28;20429;-73
2022/01/09 01:57:10;;;;;;;0.40;0.20;;;6.90;99.90;;;;;;5109431;28;20395;-75
2022/01/09 01:59:36;;;;;;;0.40;0.20;;;6.90;99.90;;;;;;5110375;28;20737;-73
2022/01/09 02:02:02;;;;;;;0.40;0.20;;;6.80;99.90;;;;;;5110041;28;20377;-73
2022/01/09 02:04:28;;;;;;;0.40;0.20;;;6.90;99.90;;;;;;5109429;28;20388;-74
2022/01/09 02:06:56;;;;;;;0.40;0.20;;;6.90;99.90;;;;;;5091321;28;20392;-73
2022/01/09 02:09:22;;;;;;;0.40;0.20;;;6.80;99.90;;;;;;5109267;28;20903;-74
2022/01/09 02:11:48;;;;;;;0.40;0.20;;;6.80;99.90;;;;;;5109897;28;20390;-73
2022/01/09 02:14:13;;;;;;;0.40;0.20;;;6.80;99.90;;;;;;5110584;28;20381;-73
2022/01/09 02:16:43;;;;;;;0.40;0.20;;;6.70;99.90;;;;;;5109455;28;20381;-73
2022/01/09 02:19:13;;;;;;;0.40;0.20;;;6.70;99.90;;;;;;5110261;28;20533;-73
2022/01/09 02:21:45;;;;;;;0.40;0.20;;;6.70;99.90;;;;;;5109556;28;20400;-73
2022/01/09 02:24:12;;;;;;;0.40;0.20;;;6.60;99.90;;;;;;5110096;28;20376;-74
2022/01/09 02:26:38;;;;;;;0.40;0.20;;;6.50;99.90;;;;;;5109800;28;20951;-73
2022/01/09 02:29:07;;;;;;;0.40;0.20;;;6.60;99.90;;;;;;5110125;28;20404;-72
2022/01/09 02:31:34;;;;;;;0.40;0.20;;;6.50;99.90;;;;;;5109733;28;20388;-73
2022/01/09 02:34:00;;;;;;;0.40;0.20;;;6.50;99.90;;;;;;5110305;28;20459;-73
2022/01/09 02:36:26;;;;;;;0.40;0.25;;;6.50;99.90;;;;;;5109373;28;20810;-73
2022/01/09 02:38:52;;;;;;;0.40;0.20;;;6.60;99.90;;;;;;5109173;28;20452;-73
2022/01/09 02:41:18;;;;;;;0.40;0.20;;;6.60;99.90;;;;;;5109084;28;20861;-72
2022/01/09 02:43:44;;;;;;;0.40;0.30;;;6.60;99.90;;;;;;5094504;28;20383;-72
2022/01/09 02:48:56;;;;;;;0.40;0.20;;;6.60;99.90;;;;;;5129290;27;20522;-75
2022/01/09 02:51:22;;;;;;;0.40;0.20;;;6.50;99.90;;;;;;5133870;27;20384;-73
2022/01/09 02:53:49;;;;;;;0.40;0.20;;;6.50;99.90;;;;;;5127672;27;20428;-74
2022/01/09 02:56:16;;;;;;;0.40;0.20;;;6.30;99.90;;;;;;5122812;27;20425;-73
2022/01/09 02:58:42;;;;;;;0.40;0.20;;;6.30;99.90;;;;;;5113351;28;20475;-75
2022/01/09 03:01:10;;;;;;;0.40;0.30;;;6.30;99.90;;;;;;5113756;28;20484;-74
2022/01/09 03:03:37;;;;;;;0.40;0.20;;;6.20;99.90;;;;;;5113696;28;20451;-75
2022/01/09 03:06:03;;;;;;;0.40;0.20;;;6.10;99.90;;;;;;5112828;28;20491;-74
2022/01/09 03:08:29;;;;;;;0.40;0.22;;;6.00;99.90;;;;;;5113645;28;20381;-74
2022/01/09 03:10:55;;;;;;;0.40;0.20;;;5.90;99.90;;;;;;5112401;28;20758;-74
2022/01/09 03:13:21;;;;;;;0.40;0.20;;;5.80;99.90;;;;;;5113888;28;20404;-73
2022/01/09 03:15:47;;;;;;;0.40;0.20;;;5.60;99.90;;;;;;5113887;28;20480;-74
2022/01/09 03:18:13;;;;;;;0.40;0.20;;;5.30;99.90;;;;;;5094412;28;20412;-73
2022/01/09 03:20:39;;;;;;;0.40;0.20;;;5.00;99.90;;;;;;5114046;28;20372;-76
2022/01/09 03:23:06;;;;;;;0.40;0.30;;;4.80;99.90;;;;;;5113326;28;20372;-78
2022/01/09 03:25:32;;;;;;;0.40;0.20;;;4.70;99.90;;;;;;5114021;28;20400;-75
2022/01/09 03:27:59;;;;;;;0.40;0.20;;;4.60;99.90;;;;;;5115390;28;20710;-75
2022/01/09 03:30:25;;;;;;;0.40;0.20;;;4.50;99.90;;;;;;5112965;28;20406;-75
2022/01/09 03:32:53;;;;;;;0.40;0.30;;;4.50;99.90;;;;;;5113881;28;20468;-73
2022/01/09 03:35:21;;;;;;;0.40;0.20;;;4.50;99.90;;;;;;5112910;28;20380;-74
2022/01/09 03:37:49;;;;;;;0.40;0.20;;;4.40;99.90;;;;;;5112741;28;20395;-72
2022/01/09 03:40:20;;;;;;;0.40;0.20;;;4.40;99.90;;;;;;5119215;27;20387;-78
2022/01/09 03:42:51;;;;;;;0.40;0.20;;;4.40;99.90;;;;;;5117023;27;20428;-74
2022/01/09 03:45:18;;;;;;;0.40;0.20;;;4.30;99.90;;;;;;5113616;28;20384;-77
2022/01/09 03:47:44;;;;;;;0.40;0.20;;;4.30;99.90;;;;;;5114526;28;20384;-76
2022/01/09 03:50:12;;;;;;;0.40;0.20;;;4.30;99.90;;;;;;5114848;28;20534;-75
2022/01/09 03:52:39;;;;;;;0.40;0.20;;;4.20;99.90;;;;;;5113762;28;20377;-75
2022/01/09 03:55:10;;;;;;;0.40;0.20;;;4.30;99.90;;;;;;5114286;28;20383;-73
2022/01/09 03:57:36;;;;;;;0.40;0.20;;;4.20;99.90;;;;;;5113162;28;20860;-74
2022/01/09 04:00:04;;;;;;;0.40;0.20;;;4.20;99.90;;;;;;5094621;28;20441;-74
2022/01/09 04:02:30;;;;;;;0.40;0.20;;;4.20;99.90;;;;;;5111286;28;20393;-78
2022/01/09 04:04:56;;;;;;;0.40;0.20;;;4.20;99.90;;;;;;5112903;28;20380;-75
2022/01/09 04:07:22;;;;;;;0.40;0.20;;;4.20;99.90;;;;;;5115043;28;20401;-74
2022/01/09 04:09:48;;;;;;;0.40;0.27;;;4.10;99.90;;;;;;5096357;28;20461;-76
2022/01/09 04:12:17;;;;;;;0.40;0.20;;;4.20;99.90;;;;;;5116340;28;20406;-75
2022/01/09 04:14:48;;;;;;;0.40;0.20;;;4.20;99.90;;;;;;5115487;28;20565;-76
2022/01/09 04:17:26;;;;;;;0.40;0.20;;;4.20;99.90;;;;;;5116247;28;20380;-75
2022/01/09 04:19:52;;;;;;;0.40;0.20;;;4.20;99.90;;;;;;5114892;28;20388;-76
2022/01/09 04:22:18;;;;;;;0.40;0.20;;;4.20;99.90;;;;;;5096798;28;20861;-75
2022/01/09 04:24:43;;;;;;;0.40;0.20;;;4.20;99.90;;;;;;5115364;28;20417;-75
2022/01/09 04:27:09;;;;;;;0.40;0.20;;;4.20;99.90;;;;;;5113720;28;20431;-75
2022/01/09 04:29:35;;;;;;;0.40;0.20;;;4.10;99.90;;;;;;5112701;28;20400;-75
2022/01/09 04:32:00;;;;;;;0.40;0.20;;;4.10;99.90;;;;;;5111793;28;20399;-75
2022/01/09 04:34:26;;;;;;;0.40;0.20;;;4.10;99.90;;;;;;5094401;28;20732;-75
2022/01/09 04:36:52;;;;;;;0.40;0.20;;;4.10;99.90;;;;;;5112816;28;20398;-73
2022/01/09 04:39:17;;;;;;;0.40;0.20;;;4.10;99.90;;;;;;5115295;27;20375;-75
2022/01/09 04:41:43;;;;;;;0.40;0.20;;;4.10;99.90;;;;;;5132775;27;21086;-75
2022/01/09 04:44:08;;;;;;;0.40;0.20;;;4.10;99.90;;;;;;5124311;27;20840;-74
2022/01/09 04:46:43;;;;;;;0.40;0.20;;;4.10;99.90;;;;;;5093935;28;20393;-74
2022/01/09 04:49:08;;;;;;;0.40;0.20;;;4.00;99.90;;;;;;5111543;28;20503;-74
2022/01/09 04:51:34;;;;;;;0.40;0.20;;;4.10;99.90;;;;;;5094350;28;20502;-74
2022/01/09 04:54:00;;;;;;;0.40;0.20;;;4.10;99.90;;;;;;5113225;28;20446;-75
2022/01/09 04:56:27;;;;;;;0.40;0.20;;;4.10;99.90;;;;;;5112338;28;20373;-74
2022/01/09 04:58:52;;;;;;;0.40;0.20;;;4.00;99.90;;;;;;5113529;28;20375;-74
2022/01/09 05:01:18;;;;;;;0.40;0.20;;;4.10;99.90;;;;;;5112847;28;20372;-74
2022/01/09 05:03:43;;;;;;;0.40;0.20;;;4.20;99.90;;;;;;5115624;27;20709;-73
2022/01/09 05:06:09;;;;;;;0.40;0.20;;;4.20;99.90;;;;;;5104795;27;20737;-74
2022/01/09 05:08:35;;;;;;;0.40;0.20;;;4.20;99.90;;;;;;5111963;28;20380;-74
2022/01/09 05:11:00;;;;;;;0.40;0.20;;;4.30;99.90;;;;;;5095126;28;20424;-73
2022/01/09 05:13:26;;;;;;;0.40;0.20;;;4.20;99.90;;;;;;5093525;28;21106;-76
2022/01/09 05:15:52;;;;;;;0.40;0.20;;;4.30;99.90;;;;;;5094997;28;20380;-74
2022/01/09 05:18:18;;;;;;;0.40;0.20;;;4.20;99.90;;;;;;5112916;28;20755;-74
2022/01/09 05:20:44;;;;;;;0.40;0.20;;;4.40;99.90;;;;;;5112084;28;20388;-74
2022/01/09 05:23:10;;;;;;;0.40;0.20;;;4.30;99.90;;;;;;5112843;28;20380;-74
2022/01/09 05:25:36;;;;;;;0.40;0.20;;;4.30;99.90;;;;;;5110686;28;20461;-74
2022/01/09 05:28:01;;;;;;;0.40;0.20;;;4.30;99.90;;;;;;5093080;28;20372;-73
2022/01/09 05:30:27;;;;;;;0.40;0.20;;;4.30;99.90;;;;;;5111134;28;20778;-74
2022/01/09 05:32:53;;;;;;;0.40;0.20;;;4.30;99.90;;;;;;5110462;28;20437;-73
2022/01/09 05:35:19;;;;;;;0.40;0.20;;;4.30;99.90;;;;;;5111104;28;20372;-73
2022/01/09 05:37:44;;;;;;;0.40;0.20;;;4.30;99.90;;;;;;5110463;28;20388;-74
2022/01/09 05:40:10;;;;;;;0.40;0.20;;;4.30;99.90;;;;;;5092943;28;20431;-73
2022/01/09 05:42:37;;;;;;;0.40;0.20;;;4.30;99.90;;;;;;5110869;27;20391;-73
2022/01/09 05:45:04;;;;;;;0.40;0.20;;;4.30;99.90;;;;;;5091518;28;20397;-73
2022/01/09 05:47:30;;;;;;;0.40;0.20;;;4.30;99.90;;;;;;5110897;28;20381;-73
2022/01/09 05:49:56;;;;;;;0.40;0.20;;;4.30;99.90;;;;;;5112363;28;20798;-73
2022/01/09 05:52:21;;;;;;;0.40;0.20;;;4.30;99.90;;;;;;5119452;27;20382;-73
2022/01/09 05:54:48;;;;;;;0.40;0.20;;;4.30;99.90;;;;;;5110897;27;20380;-74
2022/01/09 05:57:14;;;;;;;0.40;0.20;;;4.30;99.90;;;;;;5110298;28;20876;-72
2022/01/09 05:59:39;;;;;;;0.40;0.20;;;4.20;99.90;;;;;;5110404;28;20498;-72
2022/01/09 06:02:05;;;;;;;0.40;0.20;;;4.30;99.90;;;;;;5109095;28;20425;-72
2022/01/09 06:04:31;;;;;;;0.40;0.20;;;4.30;99.90;;;;;;5110056;28;20429;-71
2022/01/09 06:06:57;;;;;;;0.40;0.20;;;4.30;99.90;;;;;;5110836;28;20384;-71
2022/01/09 06:09:23;;;;;;;0.40;0.20;;;4.20;99.90;;;;;;5109329;28;20388;-71
2022/01/09 06:11:49;;;;;;;0.40;0.20;;;4.20;99.90;;;;;;5110295;28;20384;-71
2022/01/09 06:14:15;;;;;;;0.40;0.20;;;4.20;99.90;;;;;;5109823;28;20384;-71
2022/01/09 06:16:41;;;;;;;0.40;0.20;;;4.20;99.90;;;;;;5109803;28;20383;-71
2022/01/09 06:19:07;;;;;;;0.40;0.20;;;4.20;99.90;;;;;;5109721;28;20376;-70
2022/01/09 06:21:33;;;;;;;0.40;0.30;;;4.20;99.90;;;;;;5109517;28;21017;-72
2022/01/09 06:23:58;;;;;;;0.40;0.20;;;4.20;99.90;;;;;;5092522;28;20376;-72
2022/01/09 06:26:24;;;;;;;0.40;0.20;;;4.20;99.90;;;;;;5112974;28;20471;-72
2022/01/09 06:28:50;;;;;;;0.40;0.20;;;4.20;99.90;;;;;;5096597;28;20384;-72
2022/01/09 06:31:16;;;;;;;0.40;0.20;;;4.20;99.90;;;;;;5115195;28;20709;-71
2022/01/09 06:33:41;;;;;;;0.40;0.20;;;4.20;99.90;;;;;;5113355;28;20385;-71
2022/01/09 06:36:07;;;;;;;0.40;0.20;;;4.20;99.90;;;;;;5113987;28;20396;-70
2022/01/09 06:38:33;;;;;;;0.40;0.20;;;4.30;99.90;;;;;;5113540;28;20402;-72
2022/01/09 06:40:58;;;;;;;0.40;0.20;;;4.30;99.90;;;;;;5114664;28;20712;-70
2022/01/09 06:43:24;;;;;;;0.40;0.20;;;4.30;99.90;;;;;;5114693;28;20368;-71
2022/01/09 06:45:50;;;;;;;0.40;0.20;;;4.40;99.90;;;;;;5113910;28;20380;-72
2022/01/09 06:48:15;;;;;;;0.40;0.20;;;4.30;99.90;;;;;;5114700;28;20379;-72
2022/01/09 06:50:41;;;;;;;0.40;0.20;;;4.30;99.90;;;;;;5113698;28;20399;-73
2022/01/09 06:53:07;;;;;;;0.40;0.20;;;4.30;99.90;;;;;;5114635;28;20458;-73
2022/01/09 06:55:32;;;;;;;0.40;0.20;;;4.30;99.90;;;;;;5114396;28;20383;-73
2022/01/09 06:57:58;;;;;;;0.40;0.20;;;4.30;99.90;;;;;;5113600;28;20376;-72
2022/01/09 07:00:24;;;;;;;0.40;0.20;;;4.30;99.90;;;;;;5114470;28;20388;-70
2022/01/09 07:02:50;;;;;;;0.40;0.20;;;4.30;99.90;;;;;;5113553;28;20377;-71
2022/01/09 07:05:16;;;;;;;0.40;0.20;;;4.30;99.90;;;;;;5114639;28;20377;-70
2022/01/09 07:07:42;;;;;;;0.40;0.20;;;4.30;99.90;;;;;;5113938;28;20399;-70
2022/01/09 07:10:08;;;;;;;0.40;0.20;;;4.30;99.90;;;;;;5095670;28;20404;-70
2022/01/09 07:12:35;;;;;;;0.40;0.20;;;4.30;99.90;;;;;;5114430;28;20852;-70
2022/01/09 07:15:01;;;;;;;0.40;0.20;;;4.30;99.90;;;;;;5113276;28;20376;-71
2022/01/09 07:17:26;;;;;;;0.40;0.20;;;4.30;99.90;;;;;;5096216;28;20851;-69
2022/01/09 07:19:52;;;;;;;0.40;0.20;;;4.20;99.90;;;;;;5113624;28;20463;-71
2022/01/09 07:22:18;;;;;;;0.40;0.20;;;4.30;99.90;;;;;;5114200;28;20394;-70
2022/01/09 07:24:44;;;;;;;0.40;0.20;;;4.30;99.90;;;;;;5114153;28;20388;-69
2022/01/09 07:27:10;;;;;;;0.40;0.20;;;4.30;99.90;;;;;;5113272;28;20380;-70
2022/01/09 07:29:35;;;;;;;0.40;0.20;;;4.30;99.90;;;;;;5095545;28;20404;-71
2022/01/09 07:32:01;;;;;;;0.40;0.20;;;4.30;99.90;;;;;;5113486;28;20464;-73
2022/01/09 07:34:27;;;;;;;0.40;0.20;;;4.30;99.90;;;;;;5114092;28;20381;-72
2022/01/09 07:36:53;;;;;;;0.40;0.20;;;4.30;99.90;;;;;;5113795;28;20751;-72
2022/01/09 07:39:19;;;;;;;0.40;0.20;;;4.20;99.90;;;;;;5113211;28;20385;-73
2022/01/09 07:41:45;;;;;;;0.40;0.20;;;4.20;99.90;;;;;;5113767;28;20377;-72
2022/01/09 07:44:10;;;;;;;0.40;0.20;;;4.20;99.90;;;;;;5120812;27;20367;-73
2022/01/09 07:46:36;;;;;;;0.40;0.20;;;4.20;99.90;;;;;;5115914;27;20450;-72
2022/01/09 07:49:02;;;;;;;0.40;0.20;;;4.10;99.90;;;;;;5134281;27;20399;-72
2022/01/09 07:51:28;;;;;;;0.40;0.20;;;4.10;99.90;;;;;;5133221;27;20412;-73
2022/01/09 07:53:54;;;;;;;0.40;0.20;;;4.10;99.90;;;;;;5134064;27;20470;-71
2022/01/09 07:56:20;;;;;;;0.40;0.20;;;4.10;99.90;;;;;;5133293;27;20371;-73
2022/01/09 07:58:46;;;;;;;0.40;0.20;;;4.20;99.90;;;;;;5134169;27;20399;-73
2022/01/09 08:01:11;;;;;;;0.40;0.30;;;4.20;99.90;;;;;;5133200;27;20901;-73
2022/01/09 08:03:37;;;;;;;0.40;0.20;;;4.20;99.90;;;;;;5133127;27;21110;-73
2022/01/09 08:06:03;;;;;;;0.40;0.20;;;4.20;99.90;;;;;;5133474;27;20452;-74
2022/01/09 08:08:29;;;;;;;0.40;0.20;;;4.20;99.90;;;;;;5132998;27;20835;-72
2022/01/09 08:10:55;;;;;;;0.40;0.20;;;4.30;99.90;;;;;;5115271;27;20409;-73
2022/01/09 08:13:21;;;;;;;0.40;0.20;;;4.30;99.90;;;;;;5133581;27;20378;-72
2022/01/09 08:15:47;;;;;;;0.40;0.30;;;4.30;99.90;;;;;;5132938;27;20459;-73
2022/01/09 08:18:12;;;;;;;0.40;0.20;;;4.30;99.90;;;;;;5133764;27;20396;-73
2022/01/09 08:20:38;;;;;;;0.40;0.20;;;4.30;99.90;;;;;;5132937;27;20798;-73
2022/01/09 08:23:04;;;;;;;0.40;0.20;;;4.30;99.90;;;;;;5133504;27;20735;-73
2022/01/09 08:25:31;;;;;;;0.40;0.30;;;4.30;99.90;;;;;;5132909;27;20732;-75
2022/01/09 08:27:56;;;;;;;0.40;0.30;;;4.40;99.90;;;;;;5133199;27;20378;-73
2022/01/09 08:30:23;;;;;;;0.40;0.20;;;4.60;99.90;;;;;;5133476;27;20881;-73
2022/01/09 08:32:51;;;;;;;0.40;0.20;;;4.60;99.90;;;;;;5132609;27;20383;-73
2022/01/09 08:35:18;;;;;;;0.40;0.20;;;4.50;99.90;;;;;;5133335;27;20871;-73
2022/01/09 08:37:44;;;;;;;0.40;0.20;;;4.50;99.90;;;;;;5132351;27;20407;-73
2022/01/09 08:40:13;;;;;;;0.40;0.20;;;4.50;99.90;;;;;;5133405;27;20410;-73
2022/01/09 08:42:40;;;;;;;0.40;0.20;;;4.40;99.90;;;;;;5133026;27;20366;-72
2022/01/09 08:45:06;;;;;;;0.40;0.20;;;4.40;99.90;;;;;;5116995;27;20392;-72
2022/01/09 08:47:36;;;;;;;0.60;0.60;;;4.40;99.90;;;;;;5112095;28;20372;-72
2022/01/09 08:50:07;;;;;;;0.40;0.20;;;4.40;99.90;;;;;;5111543;28;20472;-72
2022/01/09 08:52:33;;;;;;;0.40;0.20;;;4.30;99.90;;;;;;5112127;28;20410;-74
2022/01/09 08:54:59;;;;;;;0.40;0.20;;;4.40;99.90;;;;;;5111797;28;20410;-73
2022/01/09 08:57:25;;;;;;;0.40;0.20;;;4.40;99.90;;;;;;5112303;28;20381;-72
2022/01/09 08:59:52;;;;;;;0.40;0.20;;;4.30;99.90;;;;;;5112209;28;20376;-73
2022/01/09 09:02:17;;;;;;;0.40;0.40;;;4.30;99.90;;;;;;5111663;28;20422;-72
2022/01/09 09:04:43;;;;;;;0.40;0.20;;;4.30;99.90;;;;;;5112385;28;20412;-73
2022/01/09 09:07:09;;;;;;;0.40;0.20;;;4.30;99.90;;;;;;5092646;28;20478;-73
2022/01/09 09:09:36;;;;;;;0.40;0.20;;;4.40;99.90;;;;;;5112043;28;20896;-72
2022/01/09 09:12:02;;;;;;;0.40;0.20;;;4.40;99.90;;;;;;5111477;28;20389;-74
2022/01/09 09:14:28;;;;;;;0.40;0.20;;;4.50;99.90;;;;;;5112244;28;20388;-73
2022/01/09 09:16:54;;;;;;;0.40;0.20;;;4.50;99.90;;;;;;5111835;28;20733;-72
2022/01/09 09:19:19;;;;;;;0.40;0.20;;;4.50;99.90;;;;;;5111198;28;20388;-73
2022/01/09 09:21:47;;;;;;;0.40;0.20;;;4.50;99.90;;;;;;5111954;28;20442;-73
2022/01/09 09:24:13;;;;;;;0.40;0.30;;;4.50;99.90;;;;;;5121979;27;20439;-73
2022/01/09 09:26:40;;;;;;;0.40;0.20;;;4.70;99.90;;;;;;5113267;27;20408;-73
2022/01/09 09:29:05;;;;;;;0.40;0.20;;;4.80;99.90;;;;;;5132552;27;20407;-73
2022/01/09 09:31:32;;;;;;;0.40;0.20;;;4.80;99.90;;;;;;5113460;27;20657;-75
2022/01/09 09:33:57;;;;;;;0.40;0.20;;;4.80;99.90;;;;;;5132217;27;20735;-75
2022/01/09 09:36:24;;;;;;;0.40;0.20;;;4.80;99.90;;;;;;5131651;27;20473;-75
2022/01/09 09:38:50;;;;;;;0.40;0.20;;;4.80;99.90;;;;;;5113888;27;20395;-75
2022/01/09 09:41:16;;;;;;;0.40;0.20;;;4.90;99.90;;;;;;5132120;27;20382;-72
2022/01/09 09:43:42;;;;;;;0.40;0.20;;;5.20;99.90;;;;;;5127076;27;20389;-74
2022/01/09 09:46:08;;;;;;;0.40;0.30;;;5.00;99.90;;;;;;5111444;28;20368;-75
2022/01/09 09:48:33;;;;;;;0.40;0.20;;;5.00;99.90;;;;;;5092841;28;20385;-75
2022/01/09 09:50:59;;;;;;;0.40;0.20;;;5.10;99.90;;;;;;5111423;28;20488;-75
2022/01/09 09:53:25;;;;;;;0.40;0.20;;;5.10;99.90;;;;;;5111692;27;20535;-76
2022/01/09 09:55:53;;;;;;;0.40;0.20;;;5.20;99.90;;;;;;5126779;27;20430;-75
2022/01/09 09:58:19;;;;;;;0.40;0.20;;;5.10;99.90;;;;;;5114541;27;20457;-74
2022/01/09 10:00:57;;;;;;;0.40;0.20;;;5.00;99.90;;;;;;5124147;27;20391;-75
2022/01/09 10:03:30;;;;;;;0.40;0.20;;;5.10;99.90;;;;;;5104044;28;20394;-74
2022/01/09 10:05:57;;;;;;;0.40;0.20;;;5.00;99.90;;;;;;5118502;27;20834;-76
2022/01/09 10:08:37;;;;;;;0.40;0.20;;;5.10;99.90;;;;;;5112745;28;20845;-75
2022/01/09 10:11:16;;;;;;;0.40;0.20;;;5.20;99.90;;;;;;5127655;27;20539;-75
2022/01/09 10:13:43;;;;;;;0.40;0.20;;;5.20;99.90;;;;;;5127357;28;20382;-74
2022/01/09 10:16:10;;;;;;;0.40;0.20;;;5.10;99.90;;;;;;5096481;28;20385;-74
2022/01/09 10:18:47;;;;;;;0.40;0.20;;;5.10;99.90;;;;;;5125111;28;20372;-74
2022/01/09 10:21:15;;;;;;;0.40;0.30;;;5.00;99.90;;;;;;5123214;28;20380;-74
2022/01/09 10:24:03;;;;;;;0.40;0.20;;;5.00;99.90;;;;;;5131546;28;20415;-73
2022/01/09 10:26:40;;;;;;;0.40;0.20;;;5.10;99.90;;;;;;5111082;28;20404;-73
2022/01/09 10:29:08;;;;;;;0.40;0.20;;;5.10;99.90;;;;;;5120589;28;20411;-73
2022/01/09 10:31:45;;;;;;;0.40;0.20;;;5.10;99.90;;;;;;5098611;28;20978;-73
2022/01/09 10:34:12;;;;;;;0.40;0.20;;;5.10;99.90;;;;;;5126797;28;20378;-73
2022/01/09 10:36:48;;;;;;;0.40;0.20;;;5.00;99.90;;;;;;5098771;28;20767;-73
2022/01/09 10:39:16;;;;;;;0.40;0.20;;;5.00;99.90;;;;;;5118598;28;20376;-72
2022/01/09 10:41:58;;;;;;;0.40;0.20;;;5.00;99.90;;;;;;5126516;28;20374;-73
2022/01/09 10:44:30;;;;;;;0.40;0.20;;;5.10;99.90;;;;;;5118885;28;20386;-73
2022/01/09 10:47:02;;;;;;;0.40;0.20;;;5.10;99.90;;;;;;5111063;28;20384;-74
2022/01/09 10:49:38;;;;;;;0.40;0.20;;;5.10;99.90;;;;;;5110489;28;20404;-72
2022/01/09 10:52:38;;;;;;;0.40;0.20;;;5.00;99.90;;;;;;5110040;28;20388;-73
2022/01/09 10:55:07;;;;;;;0.40;0.20;;;5.00;99.90;;;;;;5111876;28;20395;-74
2022/01/09 10:57:35;;;;;;;0.40;0.30;;;5.10;99.90;;;;;;5115912;28;20899;-74
2022/01/09 11:00:15;;;;;;;0.40;0.20;;;5.20;99.90;;;;;;5121723;28;20400;-75
2022/01/09 11:02:41;;;;;;;0.40;0.20;;;5.30;99.90;;;;;;5122411;28;20450;-74
2022/01/09 11:05:08;;;;;;;0.40;0.40;;;5.30;99.90;;;;;;5119809;28;20910;-76
2022/01/09 11:07:34;;;;;;;0.40;0.20;;;5.10;99.90;;;;;;5103559;28;20396;-74
2022/01/09 11:10:01;;;;;;;0.40;0.20;;;5.10;99.90;;;;;;5119337;27;20491;-75
2022/01/09 11:12:34;;;;;;;0.40;0.20;;;5.00;99.90;;;;;;5122761;27;20462;-74
2022/01/09 11:15:01;;;;;;;0.50;0.50;;;4.90;99.90;;;;;;5123476;27;20419;-73
2022/01/09 11:17:28;;;;;;;0.40;0.20;;;4.90;99.90;;;;;;5122040;27;20386;-73
2022/01/09 11:19:55;;;;;;;0.40;0.20;;;4.70;99.90;;;;;;5124021;27;20385;-73
2022/01/09 11:22:22;;;;;;;0.40;0.20;;;4.80;99.90;;;;;;5119293;27;20871;-74
2022/01/09 11:24:51;;;;;;;0.40;0.20;;;4.70;99.90;;;;;;5114031;28;20784;-73
2022/01/09 11:27:17;;;;;;;0.40;0.20;;;4.70;99.90;;;;;;5114582;28;20387;-73
2022/01/09 11:30:06;;;;;;;0.40;0.20;;;4.60;99.90;;;;;;5095164;28;21017;-73
2022/01/09 11:32:41;;;;;;;0.40;0.20;;;4.60;99.90;;;;;;5113669;28;20388;-74
2022/01/09 11:35:25;;;;;;;0.40;0.20;;;4.60;99.90;;;;;;5114136;28;20459;-73
2022/01/09 11:38:25;;;;;;;0.40;0.20;;;4.60;99.90;;;;;;5113833;28;20381;-73
2022/01/09 11:40:51;;;;;;;0.40;0.20;;;4.70;99.90;;;;;;5081875;28;20479;-73
2022/01/09 11:43:20;;;;;;;0.40;0.20;;;4.70;99.90;;;;;;5113837;28;20383;-74
2022/01/09 11:45:58;;;;;;;0.40;0.20;;;4.70;99.90;;;;;;5133087;27;20405;-74
2022/01/09 11:48:43;;;;;;;0.40;0.20;;;4.80;99.90;;;;;;5127515;27;20469;-73
2022/01/09 11:51:11;;;;;;;0.40;0.20;;;4.70;99.90;;;;;;5116311;27;20400;-74
2022/01/09 11:53:55;;;;;;;0.40;0.20;;;4.80;99.90;;;;;;5112464;28;20376;-74
2022/01/09 11:56:52;;;;;;;0.40;0.20;;;5.20;99.90;;;;;;5113966;28;20376;-73
2022/01/09 11:59:33;;;;;;;0.40;0.20;;;5.50;99.90;;;;;;5113465;28;20380;-73
2022/01/09 12:02:06;;;;;;;0.40;0.20;;;5.70;99.90;;;;;;5113280;28;20883;-73
2022/01/09 12:04:41;;;;;;;0.40;0.30;;;6.00;99.90;;;;;;5095246;28;20417;-73
2022/01/09 12:07:11;;;;;;;0.40;0.20;;;5.70;99.90;;;;;;5113358;28;20605;-74
2022/01/09 12:09:48;;;;;;;0.40;0.20;;;5.60;99.90;;;;;;5119782;27;20412;-75
2022/01/09 12:12:36;;;;;;;0.40;0.20;;;5.50;99.90;;;;;;5120275;27;20405;-73
2022/01/09 12:15:04;;;;;;;1.20;0.90;;;5.80;99.90;;;;;;5124932;27;20417;-73
2022/01/09 12:17:35;;;;;;;0.40;0.20;;;5.80;99.90;;;;;;5107728;27;20477;-74
2022/01/09 12:20:14;;;;;;;0.40;0.30;;;6.40;99.90;;;;;;5120274;27;20383;-75
2022/01/09 12:22:44;;;;;;;0.40;0.20;;;7.00;99.90;;;;;;5120069;27;20451;-74
2022/01/09 12:25:19;;;;;;;0.40;0.20;;;7.40;99.90;;;;;;5123011;27;20735;-73
2022/01/09 12:27:51;;;;;;;0.40;0.30;;;7.90;99.90;;;;;;5119739;27;20727;-73
2022/01/09 12:30:44;;;;;;;0.40;0.20;;;7.90;99.90;;;;;;5121146;27;20493;-73
2022/01/09 12:33:15;;;;;;;0.40;0.20;;;8.40;99.90;;;;;;5128995;27;20500;-74
2022/01/09 12:35:49;;;;;;;0.40;0.30;;;8.20;99.90;;;;;;5118245;27;20391;-73
2022/01/09 12:38:17;;;;;;;0.40;0.30;;;8.00;99.90;;;;;;5121587;27;20451;-74
2022/01/09 12:40:44;;;;;;;0.40;0.20;;;7.60;99.90;;;;;;5123446;27;20894;-74
2022/01/09 12:43:11;;;;;;;0.40;0.30;;;6.90;99.90;;;;;;5120359;27;20395;-75
2022/01/09 12:45:43;;;;;;;0.40;0.20;;;6.60;99.90;;;;;;5100798;28;20407;-73
2022/01/09 12:48:25;;;;;;;0.40;0.20;;;6.50;99.90;;;;;;5107235;27;20385;-74
2022/01/09 12:50:51;;;;;;;0.40;0.30;;;6.60;99.90;;;;;;5109697;27;20548;-74
2022/01/09 12:53:23;;;;;;;0.40;0.20;;;6.50;99.90;;;;;;5106308;27;20424;-73
2022/01/09 12:56:11;;;;;;;0.70;0.70;;;6.70;99.90;;;;;;5106522;27;20431;-73
2022/01/09 12:58:55;;;;;;;0.40;0.20;;;6.20;99.90;;;;;;5105472;27;20684;-73
2022/01/09 13:01:26;;;;;;;0.40;0.20;;;6.30;99.90;;;;;;5101495;27;20400;-73
2022/01/09 13:03:57;;;;;;;0.40;0.20;;;6.50;99.90;;;;;;5104502;27;20381;-73